Time;durP1;ratioP1;P1;durP2;ratioP2;P2;SDS_P1;SDS_P2;PMS_P1;PMS_P2;Temp;Humidity;BMP_temperature;BMP_pressure;BME280_temperature;BME280_humidity;BME280_pressure;Samples;Min_cycle;Max_cycle;Signal;HPM_P1;HPM_P2
2021/08/06 00:00:08;;;;;;;1.37;1.00;;;;;;;14.02;88.11;95823.53;3560016;40;20477;-71
2021/08/06 00:02:37;;;;;;;2.03;0.90;;;;;;;13.98;88.52;95816.88;3559316;40;20740;-70
2021/08/06 00:05:06;;;;;;;1.20;0.80;;;;;;;14.03;87.60;95825.19;3562730;40;21103;-70
2021/08/06 00:07:35;;;;;;;4.67;1.10;;;;;;;14.01;87.67;95823.66;3561082;40;20468;-71
2021/08/06 00:10:03;;;;;;;5.20;1.13;;;;;;;14.02;87.73;95820.88;3558033;40;21105;-71
2021/08/06 00:12:31;;;;;;;1.97;1.20;;;;;;;14.06;87.78;95815.34;3557862;40;20920;-71
2021/08/06 00:14:59;;;;;;;1.30;1.00;;;;;;;14.06;87.42;95825.88;3565375;40;20765;-72
2021/08/06 00:17:27;;;;;;;1.80;1.30;;;;;;;14.03;87.15;95821.72;3566367;40;20438;-71
2021/08/06 00:19:55;;;;;;;1.60;0.80;;;;;;;14.03;87.08;95819.06;3556998;40;20523;-72
2021/08/06 00:22:24;;;;;;;2.33;1.20;;;;;;;13.94;87.96;95819.97;3576145;39;20539;-72
2021/08/06 00:24:55;;;;;;;2.80;1.10;;;;;;;13.94;87.47;95822.59;3576763;40;20545;-72
2021/08/06 00:27:23;;;;;;;1.33;0.80;;;;;;;13.85;88.13;95814.56;3569369;40;21185;-72
2021/08/06 00:29:51;;;;;;;3.70;1.23;;;;;;;13.81;88.36;95804.50;3570981;40;20755;-72
2021/08/06 00:32:19;;;;;;;1.70;1.20;;;;;;;13.86;87.91;95818.06;3566248;40;20476;-71
2021/08/06 00:34:46;;;;;;;2.20;1.10;;;;;;;13.71;88.58;95803.72;3565151;40;20691;-71
2021/08/06 00:37:14;;;;;;;3.43;0.90;;;;;;;13.68;88.89;95798.72;3565417;40;20845;-73
2021/08/06 00:39:42;;;;;;;0.90;0.70;;;;;;;13.59;89.09;95811.75;3566545;40;20958;-72
2021/08/06 00:42:11;;;;;;;1.53;0.90;;;;;;;13.61;89.13;95809.81;3573464;40;20868;-71
2021/08/06 00:44:39;;;;;;;2.07;0.90;;;;;;;13.57;89.03;95805.00;3569646;40;20465;-71
2021/08/06 00:47:07;;;;;;;1.30;0.90;;;;;;;13.49;89.24;95791.75;3568836;40;20472;-72
2021/08/06 00:49:36;;;;;;;2.50;1.10;;;;;;;13.52;89.27;95792.25;3567780;40;20472;-72
2021/08/06 00:52:05;;;;;;;2.03;0.93;;;;;;;13.52;89.06;95797.53;3567155;40;20453;-72
2021/08/06 00:54:33;;;;;;;1.20;0.80;;;;;;;13.59;88.59;95789.91;3569864;40;20472;-73
2021/08/06 00:57:01;;;;;;;2.37;1.10;;;;;;;13.53;88.96;95786.03;3569771;40;20860;-74
2021/08/06 00:59:30;;;;;;;1.90;1.20;;;;;;;13.56;88.76;95790.19;3567860;40;20484;-70
2021/08/06 01:02:05;;;;;;;1.40;1.03;;;;;;;13.50;88.78;95793.38;3560902;40;20855;-74
2021/08/06 01:04:43;;;;;;;1.80;1.07;;;;;;;13.51;88.83;95789.78;3569409;39;20776;-73
2021/08/06 01:07:20;;;;;;;1.67;1.17;;;;;;;13.50;88.94;95786.31;3570963;40;20471;-72
2021/08/06 01:09:52;;;;;;;7.03;1.30;;;;;;;13.40;89.24;95796.84;3572126;40;20921;-73
2021/08/06 01:12:24;;;;;;;1.53;0.90;;;;;;;13.37;89.30;95791.09;3569455;40;20530;-74
2021/08/06 01:14:54;;;;;;;1.40;0.93;;;;;;;13.39;89.08;95794.41;3566439;40;20471;-72
2021/08/06 01:17:26;;;;;;;1.50;1.10;;;;;;;13.37;89.19;95786.66;3560734;40;20494;-72
2021/08/06 01:20:02;;;;;;;2.60;1.27;;;;;;;13.30;89.91;95775.03;3571435;40;20485;-72
2021/08/06 01:22:39;;;;;;;2.00;1.23;;;;;;;13.22;89.65;95775.69;3567803;40;20534;-71
2021/08/06 01:25:12;;;;;;;2.70;1.10;;;;;;;13.33;89.58;95779.16;3568419;40;20845;-74
2021/08/06 01:27:43;;;;;;;1.67;1.03;;;;;;;13.29;89.77;95791.75;3571449;40;20475;-72
2021/08/06 01:30:14;;;;;;;2.60;1.00;;;;;;;13.19;90.11;95791.78;3562607;40;20446;-74
2021/08/06 01:32:42;;;;;;;5.03;1.30;;;;;;;13.15;90.58;95793.03;3569345;40;20474;-73
2021/08/06 01:35:11;;;;;;;4.80;1.10;;;;;;;13.13;90.50;95783.59;3570638;40;20471;-73
2021/08/06 01:37:39;;;;;;;2.60;1.10;;;;;;;13.18;90.23;95792.72;3570365;40;20868;-73
2021/08/06 01:40:09;;;;;;;1.30;1.00;;;;;;;13.18;90.31;95792.72;3568623;40;20509;-76
2021/08/06 01:42:45;;;;;;;2.20;1.03;;;;;;;13.23;90.26;95790.53;3571191;40;20530;-73
2021/08/06 01:45:18;;;;;;;16.43;3.03;;;;;;;13.21;90.36;95787.22;3561935;40;20854;-73
2021/08/06 01:47:50;;;;;;;4.80;0.90;;;;;;;13.22;90.49;95788.84;3559948;40;20797;-72
2021/08/06 01:50:25;;;;;;;1.10;0.90;;;;;;;13.36;89.66;95789.41;3568328;40;20717;-71
2021/08/06 01:52:59;;;;;;;3.10;1.50;;;;;;;13.36;90.03;95789.41;3569771;40;21075;-73
2021/08/06 01:55:32;;;;;;;5.80;1.87;;;;;;;13.40;89.89;95783.72;3569735;40;20453;-73
2021/08/06 01:58:04;;;;;;;2.90;1.23;;;;;;;13.46;89.39;95782.31;3568759;40;20436;-73
2021/08/06 02:00:33;;;;;;;2.10;1.13;;;;;;;13.58;88.92;95772.44;3567477;40;20535;-71
2021/08/06 02:03:01;;;;;;;2.10;1.30;;;;;;;13.56;89.00;95775.22;3570933;39;20604;-74
2021/08/06 02:05:31;;;;;;;4.00;1.53;;;;;;;13.68;89.06;95777.66;3566583;40;20513;-72
2021/08/06 02:08:03;;;;;;;4.03;1.97;;;;;;;13.73;88.29;95772.81;3574343;40;20445;-72
2021/08/06 02:10:32;;;;;;;2.87;1.33;;;;;;;13.83;87.83;95771.78;3569211;40;20845;-70
2021/08/06 02:13:01;;;;;;;1.77;1.10;;;;;;;13.86;87.61;95775.94;3558578;40;20564;-72
2021/08/06 02:15:31;;;;;;;1.67;0.90;;;;;;;13.90;87.64;95779.94;3566692;40;20813;-73
2021/08/06 02:18:00;;;;;;;3.47;1.40;;;;;;;13.86;87.73;95781.22;3572032;40;20828;-75
2021/08/06 02:20:29;;;;;;;5.83;1.07;;;;;;;13.88;87.37;95774.00;3567776;40;20850;-71
2021/08/06 02:22:58;;;;;;;5.70;1.60;;;;;;;13.90;86.98;95771.19;3568655;40;20440;-71
2021/08/06 02:25:27;;;;;;;2.53;1.30;;;;;;;13.89;87.49;95756.41;3568095;40;20832;-72
2021/08/06 02:27:56;;;;;;;1.30;1.10;;;;;;;13.89;87.03;95757.22;3566671;40;20429;-71
2021/08/06 02:30:25;;;;;;;1.60;1.33;;;;;;;14.06;86.42;95765.31;3565057;40;20497;-72
2021/08/06 02:32:55;;;;;;;1.73;1.03;;;;;;;14.04;85.63;95757.56;3569491;40;20475;-73
2021/08/06 02:35:23;;;;;;;2.57;1.20;;;;;;;14.06;85.86;95760.06;3558091;40;20770;-72
2021/08/06 02:37:52;;;;;;;1.87;1.20;;;;;;;14.06;85.81;95755.63;3566970;40;20458;-72
2021/08/06 02:40:20;;;;;;;4.43;1.17;;;;;;;14.08;85.74;95753.66;3564590;40;20485;-69
2021/08/06 02:42:48;;;;;;;4.10;1.07;;;;;;;14.12;85.25;95760.28;3568357;40;20444;-72
2021/08/06 02:45:16;;;;;;;3.40;1.13;;;;;;;14.13;84.95;95750.56;3571777;39;20474;-74
2021/08/06 02:47:44;;;;;;;4.50;1.23;;;;;;;14.14;84.84;95753.06;3576430;40;20880;-71
2021/08/06 02:50:15;;;;;;;1.50;1.20;;;;;;;14.11;84.51;95748.09;3570481;40;20471;-72
2021/08/06 02:52:43;;;;;;;2.00;1.10;;;;;;;14.12;84.90;95751.56;3568962;40;20450;-71
2021/08/06 02:55:12;;;;;;;1.80;0.97;;;;;;;14.04;84.70;95749.66;3569381;40;20467;-72
2021/08/06 02:57:40;;;;;;;6.80;1.83;;;;;;;14.04;85.01;95747.84;3573353;40;20863;-73
2021/08/06 03:00:09;;;;;;;1.87;1.17;;;;;;;13.97;85.40;95745.97;3571434;40;20903;-74
2021/08/06 03:02:37;;;;;;;1.97;1.10;;;;;;;14.00;84.77;95740.41;3569899;39;20545;-72
2021/08/06 03:05:06;;;;;;;3.43;1.43;;;;;;;13.85;85.56;95740.06;3565577;40;20849;-74
2021/08/06 03:07:35;;;;;;;6.13;1.53;;;;;;;13.82;86.50;95743.00;3566487;40;20839;-72
2021/08/06 03:10:05;;;;;;;3.20;1.13;;;;;;;13.88;85.20;95739.78;3569871;40;20891;-74
2021/08/06 03:12:33;;;;;;;1.70;1.20;;;;;;;13.82;85.95;95741.19;3570155;40;20778;-74
2021/08/06 03:15:01;;;;;;;1.40;1.30;;;;;;;13.80;85.58;95739.69;3568219;40;20476;-73
2021/08/06 03:17:29;;;;;;;1.40;1.13;;;;;;;13.69;86.27;95732.00;3566682;40;20458;-73
2021/08/06 03:19:57;;;;;;;1.83;1.23;;;;;;;13.66;85.98;95733.09;3570959;40;20521;-71
2021/08/06 03:22:25;;;;;;;1.40;1.00;;;;;;;13.58;86.16;95725.94;3571227;40;20785;-73
2021/08/06 03:24:54;;;;;;;7.97;1.33;;;;;;;13.59;86.33;95721.50;3570165;40;20544;-73
2021/08/06 03:27:22;;;;;;;3.87;1.27;;;;;;;13.56;86.47;95722.59;3570787;40;20446;-73
2021/08/06 03:29:50;;;;;;;2.00;1.20;;;;;;;13.58;86.47;95725.94;3566619;40;20734;-70
2021/08/06 03:32:18;;;;;;;1.90;1.43;;;;;;;13.59;86.42;95718.88;3568670;40;20938;-70
2021/08/06 03:34:45;;;;;;;7.30;1.43;;;;;;;13.54;86.75;95713.22;3569691;40;20804;-70
2021/08/06 03:37:13;;;;;;;2.90;1.33;;;;;;;13.59;86.53;95708.34;3570006;40;20445;-72
2021/08/06 03:39:41;;;;;;;5.53;1.30;;;;;;;13.51;87.00;95709.09;3567782;40;20457;-69
2021/08/06 03:42:11;;;;;;;5.03;1.40;;;;;;;13.50;86.62;95702.16;3566570;40;20455;-72
2021/08/06 03:44:39;;;;;;;2.00;1.20;;;;;;;13.46;87.06;95708.69;3568047;40;20857;-72
2021/08/06 03:47:07;;;;;;;7.90;1.23;;;;;;;13.53;86.16;95706.31;3570279;40;20447;-75
2021/08/06 03:49:35;;;;;;;4.60;1.20;;;;;;;13.43;86.47;95688.75;3571207;40;20452;-74
2021/08/06 03:52:04;;;;;;;3.47;1.27;;;;;;;13.49;87.10;95703.13;3569494;40;20457;-72
2021/08/06 03:54:32;;;;;;;5.43;1.43;;;;;;;13.49;86.78;95710.22;3566649;40;20931;-73
2021/08/06 03:57:00;;;;;;;1.93;1.50;;;;;;;13.52;86.96;95707.28;3570966;40;20742;-72
2021/08/06 03:59:29;;;;;;;2.00;1.57;;;;;;;13.52;87.36;95715.97;3569310;40;20757;-74
2021/08/06 04:01:57;;;;;;;5.20;1.50;;;;;;;13.53;86.87;95712.41;3571896;40;20440;-72
2021/08/06 04:04:26;;;;;;;3.30;1.70;;;;;;;13.55;87.28;95720.16;3567680;39;20714;-72
2021/08/06 04:06:53;;;;;;;4.83;1.47;;;;;;;13.55;86.67;95717.50;3567073;40;20497;-72
2021/08/06 04:09:21;;;;;;;3.80;1.20;;;;;;;13.48;86.95;95719.88;3571539;40;20470;-73
2021/08/06 04:11:50;;;;;;;37.10;2.47;;;;;;;13.54;87.63;95724.56;3572688;40;20828;-73
2021/08/06 04:14:18;;;;;;;3.33;1.40;;;;;;;13.53;86.92;95717.66;3567338;40;20580;-72
2021/08/06 04:16:48;;;;;;;5.63;1.20;;;;;;;13.46;87.06;95708.69;3569552;40;20426;-75
2021/08/06 04:19:16;;;;;;;3.70;1.50;;;;;;;13.64;87.33;95719.25;3559475;40;20470;-72
2021/08/06 04:21:44;;;;;;;4.23;1.50;;;;;;;13.57;86.61;95705.03;3568101;40;20785;-71
2021/08/06 04:24:12;;;;;;;7.13;1.67;;;;;;;13.69;86.36;95717.03;3570602;40;20974;-71
2021/08/06 04:26:40;;;;;;;4.83;1.50;;;;;;;13.68;86.98;95723.28;3568887;40;20777;-72
2021/08/06 04:29:08;;;;;;;5.37;1.60;;;;;;;13.70;87.55;95726.59;3568014;40;21086;-72
2021/08/06 04:31:36;;;;;;;2.63;1.30;;;;;;;13.72;87.68;95729.06;3566277;40;20818;-73
2021/08/06 04:34:05;;;;;;;5.43;1.57;;;;;;;13.79;87.15;95735.41;3567523;40;20790;-73
2021/08/06 04:36:33;;;;;;;2.33;1.40;;;;;;;13.72;87.55;95729.06;3570098;40;20691;-72
2021/08/06 04:39:03;;;;;;;14.47;1.57;;;;;;;13.75;87.64;95734.03;3568587;40;20760;-72
2021/08/06 04:41:32;;;;;;;7.60;1.50;;;;;;;13.77;87.74;95740.78;3560213;40;20466;-73
2021/08/06 04:44:00;;;;;;;2.90;1.60;;;;;;;13.77;88.10;95738.16;3566970;40;21105;-74
2021/08/06 04:46:27;;;;;;;1.70;1.37;;;;;;;13.68;88.51;95736.44;3560069;40;20943;-72
2021/08/06 04:48:56;;;;;;;5.20;1.50;;;;;;;13.78;88.45;95737.22;3571967;40;20464;-73
2021/08/06 04:51:25;;;;;;;3.63;1.43;;;;;;;13.81;89.06;95736.06;3571240;40;20450;-74
2021/08/06 04:53:53;;;;;;;2.80;1.10;;;;;;;13.75;89.34;95741.94;3558435;40;20765;-72
2021/08/06 04:56:21;;;;;;;2.17;1.90;;;;;;;13.70;90.34;95739.75;3567377;40;20898;-71
2021/08/06 04:58:49;;;;;;;1.37;1.23;;;;;;;13.79;89.42;95741.47;3567746;40;20453;-71
2021/08/06 05:01:17;;;;;;;3.93;1.60;;;;;;;13.81;89.11;95738.72;3570298;40;20471;-72
2021/08/06 05:03:45;;;;;;;1.67;1.30;;;;;;;13.78;89.95;95746.88;3570020;39;20936;-71
2021/08/06 05:06:14;;;;;;;3.70;1.60;;;;;;;13.70;90.31;95750.28;3568830;40;20538;-71
2021/08/06 05:08:48;;;;;;;5.83;1.70;;;;;;;13.81;89.67;95746.59;3566173;40;20538;-71
2021/08/06 05:11:16;;;;;;;3.67;2.07;;;;;;;13.63;90.30;95738.66;3567640;40;20789;-70
2021/08/06 05:13:44;;;;;;;4.57;1.43;;;;;;;13.81;89.82;95741.34;3568766;40;20907;-75
2021/08/06 05:16:12;;;;;;;4.27;2.07;;;;;;;13.78;90.52;95733.72;3567883;40;20462;-72
2021/08/06 05:18:40;;;;;;;1.93;1.43;;;;;;;13.78;90.22;95739.84;3561050;40;20553;-73
2021/08/06 05:21:08;;;;;;;2.27;1.60;;;;;;;13.80;90.83;95740.53;3569391;40;20680;-72
2021/08/06 05:23:36;;;;;;;4.73;1.47;;;;;;;13.78;90.08;95737.22;3566724;40;20450;-73
2021/08/06 05:26:09;;;;;;;4.20;1.50;;;;;;;13.87;90.27;95726.78;3573938;40;20885;-75
2021/08/06 05:28:38;;;;;;;4.90;1.87;;;;;;;14.00;90.34;95724.63;3573567;40;20469;-73
2021/08/06 05:31:06;;;;;;;2.90;1.63;;;;;;;13.92;90.29;95732.44;3570048;40;20477;-72
2021/08/06 05:33:34;;;;;;;3.80;1.73;;;;;;;13.92;90.05;95716.66;3569652;40;20450;-73
2021/08/06 05:36:02;;;;;;;2.13;1.30;;;;;;;13.99;89.88;95736.94;3565675;40;20770;-72
2021/08/06 05:38:30;;;;;;;1.53;1.30;;;;;;;13.88;90.60;95734.53;3567037;40;20438;-73
2021/08/06 05:40:57;;;;;;;3.17;1.40;;;;;;;14.03;89.64;95727.78;3568601;40;20453;-72
2021/08/06 05:43:27;;;;;;;5.00;1.50;;;;;;;14.17;89.34;95722.97;3570572;40;20966;-73
2021/08/06 05:45:55;;;;;;;1.90;1.47;;;;;;;13.90;90.18;95723.81;3577977;40;20581;-73
2021/08/06 05:48:23;;;;;;;33.70;18.40;;;;;;;14.04;89.68;95726.81;3571177;40;20499;-71
2021/08/06 05:50:51;;;;;;;2.00;1.30;;;;;;;13.91;90.58;95739.47;3571322;40;21124;-74
2021/08/06 05:53:19;;;;;;;2.70;1.30;;;;;;;13.90;90.75;95734.34;3608942;23;20584;-71
2021/08/06 05:55:46;;;;;;;4.73;1.80;;;;;;;13.92;90.39;95742.97;3572835;39;20584;-73
2021/08/06 05:58:14;;;;;;;1.93;1.10;;;;;;;13.90;90.71;95743.09;3578519;39;20836;-72
2021/08/06 06:00:44;;;;;;;4.37;2.00;;;;;;;13.96;90.13;95739.06;3580356;39;20545;-70
2021/08/06 06:03:14;;;;;;;2.50;2.00;;;;;;;14.01;90.25;95749.94;3582389;39;20440;-73
2021/08/06 06:05:42;;;;;;;6.70;1.90;;;;;;;14.13;89.98;95740.03;3577398;39;20450;-70
2021/08/06 06:08:10;;;;;;;1.93;1.27;;;;;;;14.50;88.49;95742.56;3578997;39;20461;-72
2021/08/06 06:10:38;;;;;;;2.33;1.20;;;;;;;14.77;87.51;95740.84;3578063;39;21163;-70
2021/08/06 06:13:06;;;;;;;4.97;1.30;;;;;;;14.97;86.12;95733.59;3582210;39;20556;-69
2021/08/06 06:15:34;;;;;;;2.50;1.40;;;;;;;14.79;86.69;95731.81;3573336;39;20473;-70
2021/08/06 06:18:04;;;;;;;1.30;1.10;;;;;;;14.81;86.20;95734.28;3581137;39;20515;-71
2021/08/06 06:20:32;;;;;;;2.10;1.30;;;;;;;14.78;87.50;95751.25;3570422;39;21106;-71
2021/08/06 06:23:00;;;;;;;1.20;1.03;;;;;;;14.62;88.12;95756.34;3579874;39;20504;-72
2021/08/06 06:25:29;;;;;;;10.63;1.43;;;;;;;14.87;88.06;95759.22;3580394;39;20843;-70
2021/08/06 06:27:59;;;;;;;1.57;1.20;;;;;;;14.98;86.32;95749.25;3584667;39;20451;-73
2021/08/06 06:30:29;;;;;;;4.40;1.20;;;;;;;15.09;85.02;95752.63;3580623;39;20768;-70
2021/08/06 06:32:58;;;;;;;2.47;0.80;;;;;;;15.27;85.45;95760.50;3579940;39;20456;-72
2021/08/06 06:35:28;;;;;;;2.03;1.07;;;;;;;15.29;85.39;95759.38;3580704;39;20732;-72
2021/08/06 06:37:57;;;;;;;1.83;1.17;;;;;;;15.46;84.26;95746.28;3585204;39;20480;-71
2021/08/06 06:40:26;;;;;;;1.43;0.80;;;;;;;15.70;84.25;95754.34;3572692;39;20535;-70
2021/08/06 06:42:54;;;;;;;1.47;0.93;;;;;;;15.92;83.40;95758.25;3582297;39;20946;-72
2021/08/06 06:45:23;;;;;;;6.40;1.07;;;;;;;15.97;81.96;95755.94;3578899;39;20576;-72
2021/08/06 06:47:53;;;;;;;2.90;1.03;;;;;;;16.18;80.57;95760.81;3579153;39;20472;-70
2021/08/06 06:50:24;;;;;;;1.90;0.90;;;;;;;16.37;81.46;95759.72;3577578;39;20841;-73
2021/08/06 06:52:53;;;;;;;6.40;1.77;;;;;;;16.66;80.15;95761.09;3581761;39;20833;-70
2021/08/06 06:55:23;;;;;;;3.77;2.70;;;;;;;16.65;79.37;95756.78;3571925;39;20698;-71
2021/08/06 06:57:52;;;;;;;1.37;0.80;;;;;;;16.97;80.40;95761.31;3578482;39;20878;-71
2021/08/06 07:00:21;;;;;;;2.83;1.10;;;;;;;16.40;80.30;95766.47;3570473;39;20476;-71
2021/08/06 07:02:50;;;;;;;1.20;0.80;;;;;;;16.26;81.66;95773.22;3573135;39;20728;-73
2021/08/06 07:05:18;;;;;;;1.33;0.80;;;;;;;15.89;83.82;95773.56;3584362;39;20482;-72
2021/08/06 07:07:47;;;;;;;2.27;0.90;;;;;;;15.89;83.50;95770.94;3580193;39;20553;-71
2021/08/06 07:10:16;;;;;;;20.73;11.93;;;;;;;15.82;83.42;95776.03;3579846;39;20461;-71
2021/08/06 07:12:48;;;;;;;11.30;4.90;;;;;;;15.71;84.86;95774.44;3582427;39;20455;-73
2021/08/06 07:15:17;;;;;;;5.67;1.17;;;;;;;15.39;86.42;95775.09;3581008;39;20487;-73
2021/08/06 07:17:45;;;;;;;1.43;0.97;;;;;;;15.11;88.42;95782.31;3580463;39;20538;-71
2021/08/06 07:20:16;;;;;;;2.70;1.30;;;;;;;14.91;90.66;95792.19;3580847;39;20452;-72
2021/08/06 07:22:45;;;;;;;4.77;1.40;;;;;;;14.77;91.98;95806.75;3578695;39;20488;-71
2021/08/06 07:25:14;;;;;;;2.50;1.17;;;;;;;14.78;92.90;95808.41;3569661;39;20663;-70
2021/08/06 07:27:45;;;;;;;6.83;2.30;;;;;;;14.74;92.79;95809.66;3583584;39;20558;-73
2021/08/06 07:30:15;;;;;;;1.73;1.37;;;;;;;14.89;92.82;95812.63;3582571;39;20448;-73
2021/08/06 07:32:43;;;;;;;2.80;1.20;;;;;;;14.95;92.83;95822.53;3579470;39;20869;-71
2021/08/06 07:35:12;;;;;;;2.30;1.37;;;;;;;15.17;91.75;95810.69;3582651;39;20791;-71
2021/08/06 07:37:41;;;;;;;2.77;1.57;;;;;;;15.35;91.66;95821.25;3582102;39;20742;-71
2021/08/06 07:40:12;;;;;;;1.40;1.30;;;;;;;15.42;90.85;95827.53;3583375;39;20475;-72
2021/08/06 07:42:42;;;;;;;4.57;1.20;;;;;;;15.50;91.63;95827.59;3575578;39;20467;-72
2021/08/06 07:45:13;;;;;;;2.17;1.30;;;;;;;15.57;90.31;95833.09;3582663;39;20861;-72
2021/08/06 07:47:41;;;;;;;4.37;1.20;;;;;;;15.56;91.42;95828.78;3579175;40;20438;-73
2021/08/06 07:50:10;;;;;;;1.73;1.10;;;;;;;15.62;87.66;95842.19;3572454;40;20499;-73
2021/08/06 07:52:38;;;;;;;1.07;0.80;;;;;;;15.70;85.60;95835.31;3580593;39;21217;-71
2021/08/06 07:55:07;;;;;;;2.90;0.80;;;;;;;15.85;84.52;95844.34;3569939;40;20876;-71
2021/08/06 07:57:35;;;;;;;4.73;1.20;;;;;;;15.99;83.00;95845.56;3580024;39;20892;-73
2021/08/06 08:00:04;;;;;;;4.47;1.20;;;;;;;16.26;82.97;95841.88;3576906;39;20679;-73
2021/08/06 08:02:38;;;;;;;1.70;0.90;;;;;;;16.36;81.84;95847.88;3580245;39;20464;-73
2021/08/06 08:05:07;;;;;;;3.00;1.20;;;;;;;16.20;83.37;95848.63;3578931;39;21146;-71
2021/08/06 08:07:35;;;;;;;2.57;1.03;;;;;;;16.31;80.81;95844.91;3580949;39;20479;-70
2021/08/06 08:10:04;;;;;;;1.97;0.90;;;;;;;15.95;81.53;95846.88;3577488;39;20469;-70
2021/08/06 08:12:34;;;;;;;2.13;1.00;;;;;;;15.99;82.41;95849.06;3578195;40;20447;-70
2021/08/06 08:15:02;;;;;;;2.57;1.00;;;;;;;16.03;83.26;95849.53;3580464;39;20544;-71
2021/08/06 08:17:30;;;;;;;2.60;1.00;;;;;;;16.25;81.06;95849.97;3575756;39;20468;-73
2021/08/06 08:20:00;;;;;;;1.97;0.70;;;;;;;16.41;81.82;95850.88;3580970;39;20872;-71
2021/08/06 08:22:28;;;;;;;3.13;0.87;;;;;;;16.76;79.80;95849.00;3574358;39;20771;-72
2021/08/06 08:24:56;;;;;;;2.80;1.00;;;;;;;16.90;79.31;95844.09;3581516;39;20488;-70
2021/08/06 08:27:28;;;;;;;2.40;1.00;;;;;;;17.11;79.04;95838.31;3585615;39;20705;-71
2021/08/06 08:29:56;;;;;;;2.80;0.90;;;;;;;16.90;77.21;95849.38;3582873;39;20558;-71
2021/08/06 08:32:24;;;;;;;1.60;0.87;;;;;;;16.98;78.07;95847.56;3572709;40;20461;-70
2021/08/06 08:34:52;;;;;;;2.07;1.00;;;;;;;16.87;76.64;95862.91;3579754;39;20869;-70
2021/08/06 08:37:21;;;;;;;2.37;0.67;;;;;;;16.93;76.07;95849.88;3579265;39;20821;-70
2021/08/06 08:39:49;;;;;;;1.33;0.70;;;;;;;17.23;74.41;95844.97;3579829;39;20837;-71
2021/08/06 08:42:21;;;;;;;1.67;0.97;;;;;;;17.78;74.45;95836.28;3580142;39;20444;-71
2021/08/06 08:44:50;;;;;;;1.97;1.20;;;;;;;17.68;73.54;95833.00;3582423;39;20480;-72
2021/08/06 08:47:21;;;;;;;1.27;0.70;;;;;;;18.18;73.40;95839.03;3580460;39;20478;-71
2021/08/06 08:49:51;;;;;;;1.57;0.80;;;;;;;18.62;70.76;95840.31;3578070;39;20772;-73
2021/08/06 08:52:22;;;;;;;1.30;0.80;;;;;;;18.35;70.75;95845.09;3581169;39;20567;-73
2021/08/06 08:54:50;;;;;;;2.23;0.70;;;;;;;18.41;70.83;95849.72;3573252;40;21276;-71
2021/08/06 08:57:20;;;;;;;3.37;0.80;;;;;;;18.26;70.72;95841.63;3578070;40;20508;-73
2021/08/06 08:59:49;;;;;;;1.20;0.70;;;;;;;18.83;71.41;95845.88;3576848;39;20461;-70
2021/08/06 09:02:17;;;;;;;1.10;0.70;;;;;;;18.72;68.25;95840.94;3578349;40;21211;-72
2021/08/06 09:04:46;;;;;;;2.63;0.73;;;;;;;19.55;68.76;95848.16;3580251;39;20464;-71
2021/08/06 09:07:30;;;;;;;1.53;0.70;;;;;;;19.60;67.60;95844.97;3582478;39;20482;-72
2021/08/06 09:10:09;;;;;;;1.47;0.80;;;;;;;19.33;65.55;95852.50;3581336;39;20475;-72
2021/08/06 09:12:53;;;;;;;1.23;0.70;;;;;;;18.99;68.38;95842.28;3578892;39;20902;-71
2021/08/06 09:15:43;;;;;;;4.50;0.90;;;;;;;18.77;67.02;95850.00;3576876;39;20469;-70
2021/08/06 09:18:32;;;;;;;1.37;0.90;;;;;;;19.16;64.72;95850.97;3579741;39;20453;-73
2021/08/06 09:21:04;;;;;;;1.77;0.80;;;;;;;19.35;65.82;95853.13;3581800;39;20824;-73
2021/08/06 09:23:43;;;;;;;2.17;0.70;;;;;;;18.77;64.73;95855.31;3577308;39;20686;-71
2021/08/06 09:26:30;;;;;;;3.67;0.70;;;;;;;19.05;63.64;95857.53;3578522;39;20449;-70
2021/08/06 09:29:00;;;;;;;4.83;1.17;;;;;;;19.24;63.18;95855.38;3581707;39;20475;-72
2021/08/06 09:31:29;;;;;;;1.40;0.80;;;;;;;18.92;63.68;95860.75;3580530;39;20449;-72
2021/08/06 09:34:19;;;;;;;1.87;1.00;;;;;;;18.96;64.37;95854.06;3579732;39;20859;-71
2021/08/06 09:37:07;;;;;;;1.13;0.80;;;;;;;18.81;64.44;95849.69;3579915;39;20489;-72
2021/08/06 09:39:40;;;;;;;4.43;0.90;;;;;;;19.61;61.96;95846.63;3576324;39;20825;-73
2021/08/06 09:42:17;;;;;;;2.43;0.80;;;;;;;18.98;61.91;95842.47;3576978;39;20741;-70
2021/08/06 09:44:55;;;;;;;1.00;0.80;;;;;;;18.71;61.35;95858.66;3580423;39;20829;-72
2021/08/06 09:47:24;;;;;;;2.17;1.33;;;;;;;18.56;63.27;95855.09;3581193;39;20464;-72
2021/08/06 09:49:54;;;;;;;7.03;0.97;;;;;;;18.94;62.36;95863.22;3578973;39;21370;-72
2021/08/06 09:52:29;;;;;;;1.23;0.60;;;;;;;18.62;62.71;95861.53;3580391;39;20860;-72
2021/08/06 09:55:25;;;;;;;1.20;0.70;;;;;;;18.43;61.89;95865.44;3578126;39;20494;-72
2021/08/06 09:57:54;;;;;;;3.70;0.90;;;;;;;18.32;62.24;95871.94;3582120;39;20849;-72
2021/08/06 10:00:24;;;;;;;3.20;0.90;;;;;;;18.27;62.38;95869.81;3577297;39;20847;-74
2021/08/06 10:02:54;;;;;;;1.70;1.10;;;;;;;18.14;62.88;95865.03;3578096;39;21066;-72
2021/08/06 10:05:27;;;;;;;2.50;0.70;;;;;;;18.04;64.22;95868.88;3577971;39;20472;-72
2021/08/06 10:07:57;;;;;;;3.20;1.13;;;;;;;18.05;63.92;95875.81;3578795;40;20987;-72
2021/08/06 10:10:30;;;;;;;2.50;0.93;;;;;;;18.18;65.05;95876.13;3580031;39;20474;-72
2021/08/06 10:13:00;;;;;;;3.20;0.90;;;;;;;18.30;65.12;95884.53;3580705;39;20503;-73
2021/08/06 10:15:28;;;;;;;4.83;1.50;;;;;;;18.25;65.31;95882.41;3580364;39;20577;-72
2021/08/06 10:17:58;;;;;;;8.80;2.40;;;;;;;18.17;65.02;95879.78;3570389;39;20483;-72
2021/08/06 10:20:28;;;;;;;4.63;1.47;;;;;;;18.11;65.33;95885.75;3577769;39;20479;-72
2021/08/06 10:22:56;;;;;;;2.70;1.50;;;;;;;18.34;64.95;95886.66;3573177;40;20934;-73
2021/08/06 10:25:26;;;;;;;3.27;0.97;;;;;;;18.25;64.27;95877.09;3574069;39;20568;-72
2021/08/06 10:27:56;;;;;;;3.53;1.10;;;;;;;18.35;63.74;95882.22;3581259;39;20467;-73
2021/08/06 10:30:25;;;;;;;1.43;0.90;;;;;;;18.43;64.39;95884.00;3578417;39;20561;-73
2021/08/06 10:33:12;;;;;;;1.83;0.90;;;;;;;18.24;64.10;95891.34;3584360;39;20928;-72
2021/08/06 10:35:45;;;;;;;3.07;1.00;;;;;;;18.33;63.08;95885.03;3572500;39;20465;-71
2021/08/06 10:38:14;;;;;;;2.80;0.70;;;;;;;18.21;62.83;95883.75;3584317;39;20502;-73
2021/08/06 10:41:13;;;;;;;2.13;0.70;;;;;;;18.13;63.78;95878.44;3570906;39;20550;-72
2021/08/06 10:44:12;;;;;;;1.50;0.70;;;;;;;18.18;64.39;95881.41;3579576;39;20934;-72
2021/08/06 10:46:52;;;;;;;3.10;0.90;;;;;;;18.18;63.05;95881.41;3582189;39;20441;-72
2021/08/06 10:49:20;;;;;;;1.50;0.80;;;;;;;18.26;61.96;95883.22;3580507;39;20944;-72
2021/08/06 10:51:49;;;;;;;2.30;0.87;;;;;;;18.10;62.07;95876.16;3580681;39;20546;-72
2021/08/06 10:54:35;;;;;;;7.23;1.23;;;;;;;18.13;62.61;95870.50;3570291;39;20574;-73
2021/08/06 10:57:30;;;;;;;1.67;0.70;;;;;;;18.37;63.02;95877.56;3576853;40;20723;-73
2021/08/06 10:59:59;;;;;;;1.90;0.80;;;;;;;18.20;63.61;95879.44;3585543;39;20488;-71
2021/08/06 11:02:50;;;;;;;1.33;0.70;;;;;;;18.13;64.85;95889.88;3585043;39;20770;-73
2021/08/06 11:05:48;;;;;;;1.20;0.73;;;;;;;17.85;63.72;95880.66;3582608;39;20483;-72
2021/08/06 11:08:44;;;;;;;0.90;0.60;;;;;;;18.02;61.52;95881.47;3544508;40;20857;-73
2021/08/06 11:11:52;;;;;;;1.60;0.70;;;;;;;18.23;61.53;95881.75;3582403;39;20484;-72
2021/08/06 11:14:57;;;;;;;1.40;0.70;;;;;;;18.64;60.50;95880.75;3567350;39;20544;-72
2021/08/06 11:17:35;;;;;;;2.50;0.60;;;;;;;18.67;58.64;95875.91;3582325;39;20440;-72
2021/08/06 11:20:12;;;;;;;3.03;0.67;;;;;;;18.99;57.43;95873.31;3578218;39;21127;-73
2021/08/06 11:22:42;;;;;;;1.63;0.80;;;;;;;19.32;56.40;95873.91;3583417;39;20541;-72
2021/08/06 11:25:17;;;;;;;1.00;0.70;;;;;;;20.06;55.27;95870.63;3580813;39;20473;-73
2021/08/06 11:27:52;;;;;;;1.20;0.70;;;;;;;21.31;52.48;95861.72;3581339;39;20553;-72
2021/08/06 11:30:24;;;;;;;2.10;0.67;;;;;;;21.00;52.57;95862.84;3584255;39;20926;-73
2021/08/06 11:32:56;;;;;;;2.30;0.77;;;;;;;21.31;52.03;95864.38;3577188;39;20545;-73
2021/08/06 11:35:27;;;;;;;3.63;0.80;;;;;;;21.11;52.04;95862.34;3581571;39;20592;-73
2021/08/06 11:37:57;;;;;;;1.10;0.60;;;;;;;21.04;52.12;95860.63;3580511;39;20542;-73
2021/08/06 11:40:27;;;;;;;1.30;0.60;;;;;;;20.47;54.46;95863.00;3582187;39;20832;-73
2021/08/06 11:42:55;;;;;;;1.77;0.77;;;;;;;20.42;53.90;95859.25;3581652;39;20756;-73
2021/08/06 11:45:25;;;;;;;1.70;0.80;;;;;;;20.73;53.42;95857.19;3579264;39;20791;-73
2021/08/06 11:48:01;;;;;;;1.50;0.70;;;;;;;21.43;49.61;95856.72;3580218;39;20507;-73
2021/08/06 11:50:41;;;;;;;3.40;0.63;;;;;;;21.60;50.80;95852.78;3571342;39;21163;-73